Sandnessjøen, Norge

02:42:CET den 02. februar 2015 (GMT +0100)
Osodden | Change Station
CLOSE
Current Station
Personlig værstasjon
Location: Vevelstad, Nordland
Høyde over havet: 30 ft
Nearby Weather Stations

H.o.h 30 ft 65.70 °N, 12.43 °E | Updated 10 seconds ago

Mostly Cloudy
For det meste skyet
23.9 °F
Feels Like 24 °F
N
0.0
Vind Variabel Vind from Nord
Gusts 0.0 mph

I dag
High -- | Low -- °F
--% Chance of Precip.
I går
High -- | Low -- °F
Precip. -- tommer
9:03 AM 3:44 PM
Trekvart økende, 97% visible
Lufttrykk 29.27 tommer
Sikt -9999.0 eng. mil
Skyet For det meste skyet 4000 ft
Nedkjølingseffekt 24 °F
Duggpunkt 1 °F
Fuktighet 37%
Regn 0.00 tommer
Snødybde Not available.
UV 0 av 12
Pollen Not available.
Luftkvalitet Not available.
Flu Activity Not available.
METAR ENBN 020120Z AUTO 09006KT //// R04///// R22///// // BKN040/// M04/M11 Q0991

More Conditions Fewer Conditions

Lufttrykk 29.27 tommer
Sikt -9999.0 eng. mil
Skyet For det meste skyet 4000 ft
Nedkjølingseffekt 24 °F
Duggpunkt 1 °F
Fuktighet 37%
Regn 0.00 tommer
Snødybde Not available.
UV 0 av 12
Pollen Not available.
Luftkvalitet Not available.
Flu Activity Not available.
METAR ENBN 020120Z AUTO 09006KT //// R04///// R22///// // BKN040/// M04/M11 Q0991

More Conditions Fewer Conditions

10-Day Weather Forecast

Almanac

Astronomi

Feb. 02, 2015 Oppgang Nedgang
Virkelig tid
Tussmørke
Nautisk skumring
Astronomisk skumring
Månen
Lengde av synlig lys
Dagens lengde
Tomorrow will be .
, % of the Moon is Illuminated

Dagens maks og min

Country Highs Country Lows

Community

WunderPhotos

Upload Photos

1,792,652 photos uploaded!

WunderBlogs® & News

Nearby

Luftkvalitet

  Luftkvalitet AQ Indeks Forurensing
Not available.

Snødybde

Stasjon Depth Høyde over havet

Earthquake Activity

By Distance Mag. Time & Date
Minimum magnitude displayed is 2.5.

Coastal Water Temperatures

Sted Temperatur

Nearby Weather Stations